createdAt,value
2022-09-11T00:01:00.756Z,26.17
2022-09-11T00:03:31.308Z,26.50
2022-09-11T00:06:06.129Z,27.67
2022-09-11T00:08:32.885Z,26.25
2022-09-11T00:11:05.862Z,28.25
2022-09-11T00:13:32.641Z,29.75
2022-09-11T00:15:59.614Z,27.23
2022-09-11T00:18:29.243Z,28.27
2022-09-11T00:20:57.799Z,28.45
2022-09-11T00:23:26.487Z,32.50
2022-09-11T00:25:53.759Z,32.88
2022-09-11T00:28:23.483Z,28.90
2022-09-11T00:31:05.255Z,31.48
2022-09-11T00:33:33.419Z,30.05
2022-09-11T00:36:10.091Z,30.05
2022-09-11T00:38:38.644Z,26.75
2022-09-11T00:41:08.958Z,28.95
2022-09-11T00:43:55.166Z,34.17
2022-09-11T00:46:26.062Z,31.08
2022-09-11T00:48:53.067Z,27.60
2022-09-11T00:51:29.334Z,28.10
2022-09-11T00:53:58.192Z,25.50
2022-09-11T00:56:31.207Z,28.00
2022-09-11T00:58:59.283Z,28.80
2022-09-11T01:01:26.008Z,32.92
2022-09-11T01:03:52.686Z,28.50
2022-09-11T01:06:20.983Z,21.90
2022-09-11T01:08:50.522Z,19.10
2022-09-11T01:11:17.342Z,16.90
2022-09-11T01:14:13.198Z,13.18
2022-09-11T01:16:53.228Z,18.08
2022-09-11T01:19:44.803Z,18.50
2022-09-11T01:22:55.731Z,19.67
2022-09-11T01:25:27.315Z,25.67
2022-09-11T01:28:02.879Z,22.40
2022-09-11T01:30:41.719Z,25.80
2022-09-11T01:33:18.038Z,29.45
2022-09-11T01:35:54.350Z,29.48
2022-09-11T01:38:46.121Z,28.85
2022-09-11T01:41:20.546Z,25.70
2022-09-11T01:43:56.151Z,29.55
2022-09-11T01:46:25.503Z,37.60
2022-09-11T01:49:02.638Z,36.03
2022-09-11T01:51:32.517Z,33.25
2022-09-11T01:54:01.114Z,35.83
2022-09-11T01:56:33.871Z,34.17
2022-09-11T01:59:05.892Z,30.63
2022-09-11T02:01:36.769Z,34.53
2022-09-11T02:04:10.918Z,29.52
2022-09-11T02:06:47.447Z,32.55
2022-09-11T02:09:19.331Z,32.97
2022-09-11T02:11:50.011Z,26.30
2022-09-11T02:14:28.010Z,26.20
2022-09-11T02:17:10.863Z,24.63
2022-09-11T02:19:39.199Z,22.30
2022-09-11T02:22:06.211Z,21.67
2022-09-11T02:24:36.899Z,23.88
2022-09-11T02:27:08.290Z,24.38
2022-09-11T02:29:36.630Z,26.50
2022-09-11T02:32:04.530Z,24.15
2022-09-11T02:34:36.748Z,28.27
2022-09-11T02:37:21.175Z,23.58
2022-09-11T02:40:11.011Z,23.05
2022-09-11T02:43:01.919Z,24.20
2022-09-11T02:46:07.426Z,24.60
2022-09-11T02:48:57.067Z,20.17
2022-09-11T02:51:28.559Z,21.55
2022-09-11T02:54:35.105Z,20.63
2022-09-11T02:57:31.765Z,22.17
2022-09-11T03:00:02.414Z,22.60
2022-09-11T03:02:33.854Z,26.20
2022-09-11T03:05:00.567Z,24.10
2022-09-11T03:07:27.217Z,26.90
2022-09-11T03:09:55.436Z,22.52
2022-09-11T03:12:24.664Z,21.70
2022-09-11T03:14:51.891Z,22.75
2022-09-11T03:17:20.733Z,20.20
2022-09-11T03:19:47.579Z,22.23
2022-09-11T03:22:14.750Z,22.05
2022-09-11T03:24:42.754Z,24.58
2022-09-11T03:27:09.651Z,21.55
2022-09-11T03:29:37.730Z,22.30
2022-09-11T03:32:05.000Z,21.05
2022-09-11T03:34:32.008Z,21.17
2022-09-11T03:36:58.950Z,22.88
2022-09-11T03:39:25.739Z,53.67
2022-09-11T03:41:52.379Z,24.60
2022-09-11T03:44:19.394Z,29.67
2022-09-11T03:46:46.086Z,20.58
2022-09-11T03:49:13.867Z,18.42
2022-09-11T03:51:40.531Z,19.58
2022-09-11T03:54:07.714Z,20.45
2022-09-11T03:56:34.440Z,26.38
2022-09-11T03:59:01.131Z,20.10
2022-09-11T04:01:28.994Z,19.13
2022-09-11T04:03:56.232Z,19.27
2022-09-11T04:06:37.194Z,16.95
2022-09-11T04:09:05.026Z,22.08
2022-09-11T04:11:36.727Z,18.50
2022-09-11T04:14:05.933Z,18.58
2022-09-11T04:16:33.353Z,21.05
2022-09-11T04:19:01.747Z,17.48
2022-09-11T04:21:29.018Z,17.15
2022-09-11T04:23:57.298Z,15.98
2022-09-11T04:26:42.447Z,19.15
2022-09-11T04:29:17.714Z,22.83
2022-09-11T04:31:45.215Z,18.10
2022-09-11T04:34:14.155Z,23.55
2022-09-11T04:36:40.839Z,19.23
2022-09-11T04:39:12.222Z,19.35
2022-09-11T04:41:38.886Z,21.27
2022-09-11T04:44:05.870Z,20.58
2022-09-11T04:46:38.175Z,19.52
2022-09-11T04:49:09.135Z,19.85
2022-09-11T04:51:36.594Z,18.35
2022-09-11T04:54:04.127Z,17.48
2022-09-11T04:56:38.074Z,20.42
2022-09-11T04:59:13.481Z,19.17
2022-09-11T05:01:44.051Z,19.45
2022-09-11T05:04:12.727Z,19.23
2022-09-11T05:06:40.715Z,22.48
2022-09-11T05:09:11.366Z,25.65
2022-09-11T05:11:39.230Z,19.25
2022-09-11T05:14:06.179Z,25.48
2022-09-11T05:16:36.433Z,18.80
2022-09-11T05:19:04.272Z,19.55
2022-09-11T05:21:33.345Z,19.85
2022-09-11T05:24:02.077Z,20.15
2022-09-11T05:26:33.560Z,21.75
2022-09-11T05:29:07.120Z,29.05
2022-09-11T05:31:40.449Z,22.05
2022-09-11T05:34:08.681Z,22.17
2022-09-11T05:36:36.910Z,22.30
2022-09-11T05:39:05.154Z,27.17
2022-09-11T05:41:33.955Z,19.90
2022-09-11T05:44:00.671Z,23.15
2022-09-11T05:46:28.159Z,22.10
2022-09-11T05:48:59.562Z,21.52
2022-09-11T05:51:27.535Z,21.92
2022-09-11T05:53:55.893Z,28.98
2022-09-11T05:56:25.347Z,25.08
2022-09-11T05:58:58.571Z,26.23
2022-09-11T06:01:32.156Z,47.50
2022-09-11T06:04:12.177Z,38.97
2022-09-11T06:06:41.422Z,32.65
2022-09-11T06:09:08.347Z,29.80
2022-09-11T06:11:35.197Z,28.13
2022-09-11T06:14:02.727Z,36.30
2022-09-11T06:16:31.386Z,32.63
2022-09-11T06:19:05.820Z,29.58
2022-09-11T06:21:32.551Z,34.17
2022-09-11T06:24:05.875Z,31.30
2022-09-11T06:26:35.332Z,28.98
2022-09-11T06:29:02.943Z,33.72
2022-09-11T06:31:30.375Z,31.25
2022-09-11T06:33:57.672Z,29.65
2022-09-11T06:36:30.017Z,23.38
2022-09-11T06:38:58.840Z,28.25
2022-09-11T06:41:28.166Z,29.13
2022-09-11T06:44:03.834Z,29.85
2022-09-11T06:46:31.255Z,32.72
2022-09-11T06:48:59.914Z,30.88
2022-09-11T06:51:28.142Z,34.70
2022-09-11T06:53:57.916Z,32.97
2022-09-11T06:56:27.558Z,33.30
2022-09-11T06:58:54.291Z,31.48
2022-09-11T07:01:24.855Z,33.38
2022-09-11T07:03:58.951Z,30.50
2022-09-11T07:06:28.868Z,30.75
2022-09-11T07:09:01.467Z,31.08
2022-09-11T07:11:36.610Z,32.13
2022-09-11T07:14:06.175Z,34.50
2022-09-11T07:16:37.698Z,33.17
2022-09-11T07:19:09.843Z,32.13
2022-09-11T07:21:38.509Z,30.77
2022-09-11T07:24:06.972Z,31.20
2022-09-11T07:26:37.416Z,35.38
2022-09-11T07:29:10.672Z,30.55
2022-09-11T07:31:38.793Z,28.95
2022-09-11T07:34:06.314Z,30.80
2022-09-11T07:36:34.902Z,29.05
2022-09-11T07:39:04.858Z,32.72
2022-09-11T07:41:36.879Z,31.35
2022-09-11T07:44:10.671Z,34.65
2022-09-11T07:46:41.252Z,33.60
2022-09-11T07:49:10.141Z,35.20
2022-09-11T07:51:38.635Z,32.65
2022-09-11T07:54:07.993Z,28.80
2022-09-11T07:56:36.607Z,28.58
2022-09-11T07:59:09.239Z,34.70
2022-09-11T08:01:39.784Z,33.28
2022-09-11T08:04:10.213Z,30.63
2022-09-11T08:06:38.539Z,35.50
2022-09-11T08:09:14.976Z,29.38
2022-09-11T08:11:48.589Z,29.85
2022-09-11T08:14:17.644Z,33.78
2022-09-11T08:16:46.475Z,32.63
2022-09-11T08:19:21.662Z,37.47
2022-09-11T08:21:53.880Z,33.30
2022-09-11T08:24:21.404Z,31.77
2022-09-11T08:26:50.707Z,33.35
2022-09-11T08:29:18.791Z,33.38
2022-09-11T08:31:47.407Z,29.02
2022-09-11T08:34:15.462Z,36.53
2022-09-11T08:36:42.248Z,31.05
2022-09-11T08:39:09.785Z,31.70
2022-09-11T08:42:05.711Z,31.17
2022-09-11T08:44:54.326Z,32.88
2022-09-11T08:47:34.494Z,35.13
2022-09-11T08:50:09.654Z,32.58
2022-09-11T08:52:37.114Z,33.10
2022-09-11T08:55:13.910Z,31.10
2022-09-11T08:57:52.186Z,29.65
2022-09-11T09:00:32.916Z,33.15
2022-09-11T09:03:06.533Z,37.35
2022-09-11T09:06:00.729Z,33.58
2022-09-11T09:08:49.382Z,27.50
2022-09-11T09:11:31.140Z,29.30
2022-09-11T09:14:31.954Z,31.58
2022-09-11T09:17:34.477Z,32.75
2022-09-11T09:20:09.169Z,33.10
2022-09-11T09:22:49.483Z,30.08
2022-09-11T09:25:21.018Z,29.90
2022-09-11T09:28:21.775Z,37.13
2022-09-11T09:30:58.494Z,26.42
2022-09-11T09:33:35.302Z,29.45
2022-09-11T09:36:16.554Z,29.73
2022-09-11T09:38:45.211Z,30.88
2022-09-11T09:41:45.447Z,29.15
2022-09-11T09:44:30.138Z,27.77
2022-09-11T09:46:56.982Z,29.95
2022-09-11T09:49:31.087Z,23.80
2022-09-11T09:52:04.056Z,22.42
2022-09-11T09:54:36.218Z,24.25
2022-09-11T09:57:07.149Z,21.40
2022-09-11T09:59:55.595Z,23.05
2022-09-11T10:02:41.860Z,23.48
2022-09-11T10:05:42.756Z,19.83
2022-09-11T10:08:34.038Z,19.60
2022-09-11T10:11:03.848Z,24.58
2022-09-11T10:13:55.820Z,22.48
2022-09-11T10:16:49.210Z,21.00
2022-09-11T10:20:21.446Z,20.85
2022-09-11T10:23:17.034Z,17.35
2022-09-11T10:25:53.221Z,16.63
2022-09-11T10:28:48.538Z,13.35
2022-09-11T10:31:30.348Z,14.57
2022-09-11T10:34:03.784Z,17.63
2022-09-11T10:43:03.995Z,14.20
